Terminal Aerodrome Forecast
Issued by NWS

Home | Current Version | Previous Version | Text Only | Print | Product List | Glossary On
Versions: 1 2 3 4 5 6 7 8 9 10 11 12 13 14 15 16
750
FTUS46 KMTR 191120
TAFOAK
TAF
KOAK 191120Z 1912/2018 29005KT P6SM OVC008
     FM191700 VRB04KT P6SM SCT010
      TEMPO 1917/1918 BKN009
     FM192100 30013KT P6SM FEW010
     FM200200 30006KT P6SM FEW010
     FM200600 28007KT P6SM BKN008
     FM200900 30005KT P6SM OVC007
     FM201700 VRB04KT P6SM SCT009=

USA.gov is the U.S. government's official web portal to all federal, state and local government web resources and services.